createdAt,value
2022-08-08T00:00:59.971Z,0.50
2022-08-08T00:03:34.254Z,0.50
2022-08-08T00:06:11.848Z,0.63
2022-08-08T00:09:15.715Z,0.50
2022-08-08T00:11:47.095Z,0.40
2022-08-08T00:14:56.832Z,0.50
2022-08-08T00:18:02.032Z,0.40
2022-08-08T00:20:46.161Z,0.40
2022-08-08T00:23:47.378Z,0.60
2022-08-08T00:26:29.688Z,0.60
2022-08-08T00:29:45.052Z,0.70
2022-08-08T00:32:35.097Z,0.82
2022-08-08T00:35:21.348Z,0.60
2022-08-08T00:38:05.071Z,0.43
2022-08-08T00:41:09.103Z,0.50
2022-08-08T00:43:59.125Z,0.70
2022-08-08T00:47:01.668Z,0.50
2022-08-08T00:49:59.194Z,0.60
2022-08-08T00:52:58.031Z,0.43
2022-08-08T00:56:11.522Z,0.50
2022-08-08T00:59:03.455Z,0.60
2022-08-08T01:01:42.299Z,0.60
2022-08-08T01:04:47.439Z,0.60
2022-08-08T01:07:54.901Z,0.60
2022-08-08T01:10:52.464Z,0.80
2022-08-08T01:14:01.639Z,0.50
2022-08-08T01:17:06.880Z,0.70
2022-08-08T01:20:02.893Z,0.60
2022-08-08T01:22:50.481Z,0.52
2022-08-08T01:25:40.817Z,0.70
2022-08-08T01:28:44.061Z,0.70
2022-08-08T01:32:13.376Z,0.50
2022-08-08T01:35:18.669Z,0.40
2022-08-08T01:38:07.935Z,0.43
2022-08-08T01:41:05.141Z,0.52
2022-08-08T01:43:53.264Z,0.43
2022-08-08T01:46:52.163Z,0.60
2022-08-08T01:50:00.985Z,0.50
2022-08-08T01:55:15.852Z,0.77
2022-08-08T01:56:28.235Z,0.50
2022-08-08T01:58:53.760Z,0.55
2022-08-08T02:02:05.504Z,0.52
2022-08-08T02:04:54.472Z,0.63
2022-08-08T02:07:57.079Z,0.88
2022-08-08T02:10:37.332Z,0.50
2022-08-08T02:13:53.320Z,0.70
2022-08-08T02:16:21.225Z,0.57
2022-08-08T02:18:59.511Z,0.60
2022-08-08T02:21:57.852Z,0.70
2022-08-08T02:24:27.730Z,0.50
2022-08-08T02:27:21.736Z,0.77
2022-08-08T02:30:05.222Z,0.70
2022-08-08T02:33:06.931Z,0.63
2022-08-08T02:36:03.961Z,0.60
2022-08-08T02:38:41.279Z,0.60
2022-08-08T02:41:59.537Z,0.60
2022-08-08T02:44:56.356Z,0.80
2022-08-08T02:47:55.074Z,0.57
2022-08-08T02:50:55.746Z,0.57
2022-08-08T02:53:47.271Z,0.60
2022-08-08T02:56:31.544Z,0.60
2022-08-08T02:59:05.795Z,0.70
2022-08-08T03:02:06.278Z,0.80
2022-08-08T03:05:03.006Z,0.65
2022-08-08T03:07:58.564Z,0.80
2022-08-08T03:10:44.595Z,0.63
2022-08-08T03:15:58.220Z,0.60
2022-08-08T03:16:37.106Z,0.82
2022-08-08T03:19:51.989Z,0.65
2022-08-08T03:22:48.115Z,0.40
2022-08-08T03:25:17.786Z,0.60
2022-08-08T03:27:59.954Z,0.50
2022-08-08T03:30:32.200Z,0.60
2022-08-08T03:36:15.867Z,0.50
2022-08-08T03:38:55.673Z,0.50
2022-08-08T03:42:11.549Z,0.40
2022-08-08T03:44:32.048Z,0.70
2022-08-08T03:47:07.074Z,0.55
2022-08-08T03:50:01.149Z,0.68
2022-08-08T03:52:35.799Z,0.50
2022-08-08T03:55:55.066Z,0.50
2022-08-08T03:58:30.602Z,0.50
2022-08-08T04:01:02.637Z,0.52
2022-08-08T04:03:59.579Z,0.50
2022-08-08T04:06:31.880Z,0.50
2022-08-08T04:09:10.288Z,0.70
2022-08-08T04:11:57.633Z,0.55
2022-08-08T04:14:34.492Z,0.55
2022-08-08T04:17:04.256Z,0.50
2022-08-08T04:19:36.765Z,0.82
2022-08-08T04:22:04.456Z,0.70
2022-08-08T04:24:36.275Z,0.50
2022-08-08T04:27:19.406Z,0.52
2022-08-08T04:29:55.231Z,0.68
2022-08-08T04:32:30.843Z,0.52
2022-08-08T04:35:03.034Z,0.60
2022-08-08T04:37:34.442Z,0.50
2022-08-08T04:40:12.542Z,0.82
2022-08-08T04:42:57.062Z,0.70
2022-08-08T04:45:44.963Z,0.68
2022-08-08T04:48:15.107Z,0.50
2022-08-08T04:50:44.676Z,0.50
2022-08-08T04:54:27.468Z,0.60
2022-08-08T04:56:05.277Z,0.50
2022-08-08T04:58:34.623Z,0.70
2022-08-08T05:01:08.870Z,0.40
2022-08-08T05:04:09.599Z,0.40
2022-08-08T05:06:32.172Z,0.50
2022-08-08T05:09:02.171Z,0.40
2022-08-08T05:11:38.957Z,0.50
2022-08-08T05:14:08.896Z,0.50
2022-08-08T05:16:52.055Z,0.50
2022-08-08T05:20:11.851Z,0.55
2022-08-08T05:22:17.319Z,0.50
2022-08-08T05:24:48.265Z,0.50
2022-08-08T05:27:17.393Z,0.60
2022-08-08T05:29:45.098Z,0.40
2022-08-08T05:32:17.594Z,0.60
2022-08-08T05:34:50.958Z,0.50
2022-08-08T05:37:39.386Z,0.57
2022-08-08T05:40:14.660Z,0.70
2022-08-08T05:42:49.156Z,0.50
2022-08-08T05:45:30.558Z,0.30
2022-08-08T05:48:08.991Z,0.50
2022-08-08T05:50:39.179Z,0.55
2022-08-08T05:53:54.722Z,0.50
2022-08-08T05:56:09.577Z,0.50
2022-08-08T05:58:57.772Z,0.50
2022-08-08T06:01:55.822Z,0.60
2022-08-08T06:04:27.138Z,0.50
2022-08-08T06:07:00.251Z,0.32
2022-08-08T06:10:00.618Z,0.47
2022-08-08T06:12:31.002Z,0.50
2022-08-08T06:15:03.141Z,0.50
2022-08-08T06:17:51.564Z,0.50
2022-08-08T06:20:21.247Z,0.47
2022-08-08T06:22:50.165Z,0.40
2022-08-08T06:28:16.049Z,0.43
2022-08-08T06:30:44.552Z,0.50
2022-08-08T06:33:15.051Z,0.50
2022-08-08T06:36:08.243Z,0.60
2022-08-08T06:38:37.880Z,0.52
2022-08-08T06:41:13.357Z,0.57
2022-08-08T06:43:47.815Z,0.57
2022-08-08T06:46:30.094Z,0.40
2022-08-08T06:48:59.831Z,0.50
2022-08-08T06:51:47.168Z,0.40
2022-08-08T06:54:15.688Z,0.55
2022-08-08T06:56:47.155Z,0.50
2022-08-08T06:59:18.727Z,0.60
2022-08-08T07:02:17.476Z,0.40
2022-08-08T07:04:58.580Z,0.50
2022-08-08T07:07:52.314Z,0.60
2022-08-08T07:10:24.393Z,0.50
2022-08-08T07:13:10.972Z,0.70
2022-08-08T07:16:06.178Z,0.45
2022-08-08T07:18:42.752Z,0.47
2022-08-08T07:21:19.341Z,0.50
2022-08-08T07:26:38.515Z,0.50
2022-08-08T07:29:11.399Z,0.43
2022-08-08T07:31:49.322Z,0.50
2022-08-08T07:34:31.589Z,0.77
2022-08-08T07:37:11.935Z,0.50
2022-08-08T07:39:56.273Z,0.50
2022-08-08T07:42:33.327Z,0.60
2022-08-08T07:45:04.068Z,0.50
2022-08-08T07:47:39.139Z,0.65
2022-08-08T07:50:09.012Z,0.68
2022-08-08T07:52:43.746Z,0.60
2022-08-08T07:55:28.663Z,0.55
2022-08-08T07:58:05.383Z,0.50
2022-08-08T08:00:41.910Z,0.50
2022-08-08T08:03:23.403Z,0.60
2022-08-08T08:05:55.620Z,0.55
2022-08-08T08:08:52.017Z,0.60
2022-08-08T08:11:23.994Z,0.68
2022-08-08T08:14:09.622Z,0.50
2022-08-08T08:16:48.526Z,0.52
2022-08-08T08:19:18.022Z,0.43
2022-08-08T08:21:57.845Z,0.65
2022-08-08T08:24:46.551Z,0.40
2022-08-08T08:27:14.643Z,0.60
2022-08-08T08:29:51.085Z,0.57
2022-08-08T08:32:24.140Z,0.47
2022-08-08T08:35:04.665Z,0.70
2022-08-08T08:37:32.400Z,0.50
2022-08-08T08:40:02.927Z,0.50
2022-08-08T08:42:36.791Z,0.80
2022-08-08T08:45:23.077Z,0.60
2022-08-08T08:47:58.531Z,0.70
2022-08-08T08:50:33.547Z,0.60
2022-08-08T08:53:27.230Z,0.70
2022-08-08T08:56:01.964Z,0.50
2022-08-08T08:58:42.865Z,0.50
2022-08-08T09:01:18.851Z,0.60
2022-08-08T09:03:51.495Z,0.70
2022-08-08T09:06:33.249Z,0.60
2022-08-08T09:09:07.137Z,0.70
2022-08-08T09:12:02.288Z,0.60
2022-08-08T09:14:34.323Z,0.50
2022-08-08T09:17:09.844Z,0.68
2022-08-08T09:22:00.531Z,0.70
2022-08-08T09:22:29.628Z,0.68
2022-08-08T09:24:58.568Z,0.65
2022-08-08T09:27:41.958Z,0.52
2022-08-08T09:30:17.471Z,0.60
2022-08-08T09:33:53.760Z,0.65
2022-08-08T09:35:50.034Z,0.63
2022-08-08T09:39:03.546Z,0.80
2022-08-08T09:42:15.221Z,0.40
2022-08-08T09:44:57.396Z,0.50
2022-08-08T09:48:09.796Z,0.50
2022-08-08T09:50:34.747Z,0.60
2022-08-08T09:53:15.394Z,0.55
2022-08-08T09:56:03.774Z,0.57
2022-08-08T09:58:50.201Z,0.68
2022-08-08T10:01:58.416Z,0.50
2022-08-08T10:04:14.892Z,0.60
2022-08-08T10:07:07.532Z,0.60
2022-08-08T10:09:35.886Z,0.60
2022-08-08T10:12:38.853Z,0.60
2022-08-08T10:15:19.077Z,0.57
2022-08-08T10:18:06.071Z,0.50
2022-08-08T10:20:57.857Z,0.60
2022-08-08T10:23:44.197Z,0.40
2022-08-08T10:26:25.977Z,0.60
2022-08-08T10:29:05.563Z,0.52
2022-08-08T10:31:52.887Z,0.63
2022-08-08T10:34:23.156Z,0.70
2022-08-08T10:36:51.106Z,0.47
2022-08-08T10:39:23.445Z,0.50
2022-08-08T10:42:14.970Z,0.60
2022-08-08T10:44:43.305Z,0.70
2022-08-08T10:47:15.033Z,0.60
2022-08-08T10:50:00.292Z,0.50
2022-08-08T10:52:38.155Z,0.82
2022-08-08T10:55:07.020Z,0.70
2022-08-08T10:57:50.409Z,0.70
2022-08-08T11:00:25.764Z,0.65
2022-08-08T11:02:53.955Z,0.63
2022-08-08T11:05:23.203Z,0.50
2022-08-08T11:08:37.936Z,0.70
2022-08-08T11:10:44.176Z,0.50
2022-08-08T11:13:29.652Z,0.47
2022-08-08T11:16:00.751Z,0.50
2022-08-08T11:18:35.977Z,0.60
2022-08-08T11:21:09.989Z,0.57
2022-08-08T11:23:41.593Z,0.90
2022-08-08T11:26:19.376Z,0.75
2022-08-08T11:28:46.981Z,0.50
2022-08-08T11:31:16.514Z,0.52
2022-08-08T11:33:52.651Z,0.60
2022-08-08T11:36:29.189Z,0.57
2022-08-08T11:38:57.181Z,0.55
2022-08-08T11:41:24.972Z,0.60
2022-08-08T11:43:57.875Z,0.80
2022-08-08T11:46:26.427Z,0.70
2022-08-08T11:51:38.632Z,0.68
2022-08-08T11:54:26.657Z,0.77
2022-08-08T11:56:56.099Z,0.75
2022-08-08T11:59:58.592Z,0.70
2022-08-08T12:02:33.162Z,0.60
2022-08-08T12:05:01.964Z,0.55
2022-08-08T12:07:28.909Z,1.20
2022-08-08T12:09:59.587Z,0.52
2022-08-08T12:12:30.555Z,0.80
2022-08-08T12:15:05.102Z,0.50
2022-08-08T12:17:36.427Z,0.60
2022-08-08T12:20:06.106Z,0.50
2022-08-08T12:22:44.840Z,0.80
2022-08-08T12:25:20.488Z,0.60
2022-08-08T12:27:52.442Z,0.60
2022-08-08T12:30:31.941Z,0.57
2022-08-08T12:33:02.282Z,0.60
2022-08-08T12:35:41.063Z,0.80
2022-08-08T12:38:20.212Z,0.60
2022-08-08T12:41:00.100Z,0.70
2022-08-08T12:43:59.696Z,0.70
2022-08-08T12:46:27.044Z,0.60
2022-08-08T12:51:58.339Z,0.47
2022-08-08T12:54:36.560Z,0.77
2022-08-08T12:57:31.735Z,0.52
2022-08-08T13:00:15.732Z,0.60
2022-08-08T13:02:51.379Z,0.80
2022-08-08T13:05:26.569Z,0.50
2022-08-08T13:08:17.241Z,0.65
2022-08-08T13:10:58.468Z,0.52
2022-08-08T13:13:28.390Z,0.50
2022-08-08T13:16:37.379Z,0.60
2022-08-08T13:19:13.945Z,0.52
2022-08-08T13:21:53.578Z,0.45
2022-08-08T13:24:40.812Z,0.50
2022-08-08T13:27:14.895Z,0.57
2022-08-08T13:29:48.758Z,0.80
2022-08-08T13:32:17.678Z,0.50
2022-08-08T13:34:55.567Z,0.65
2022-08-08T13:37:51.610Z,0.70
2022-08-08T13:40:10.617Z,0.60
2022-08-08T13:42:37.745Z,0.98
2022-08-08T13:45:06.354Z,0.60
2022-08-08T13:47:36.651Z,0.55
2022-08-08T13:50:36.296Z,0.70
2022-08-08T13:52:53.649Z,0.60
2022-08-08T13:55:29.615Z,0.60
2022-08-08T13:58:08.259Z,0.70
2022-08-08T14:00:45.492Z,0.50
2022-08-08T14:03:53.759Z,0.60
2022-08-08T14:06:32.436Z,0.50
2022-08-08T14:08:57.252Z,0.40
2022-08-08T14:11:27.947Z,0.70
2022-08-08T14:13:59.676Z,0.60
2022-08-08T14:16:27.817Z,0.65
2022-08-08T14:19:00.594Z,0.60
2022-08-08T14:21:51.888Z,0.60
2022-08-08T14:24:31.485Z,0.60
2022-08-08T14:26:58.155Z,0.50
2022-08-08T14:29:28.279Z,0.65
2022-08-08T14:32:09.550Z,0.70
2022-08-08T14:34:42.458Z,0.60
2022-08-08T14:37:10.195Z,0.50
2022-08-08T14:39:49.764Z,0.45
2022-08-08T14:42:26.776Z,0.60
2022-08-08T14:44:56.380Z,0.60
2022-08-08T14:47:24.820Z,0.50
2022-08-08T14:50:11.378Z,0.50
2022-08-08T14:52:54.178Z,0.60
2022-08-08T14:55:35.291Z,0.50
2022-08-08T14:58:12.117Z,0.50
2022-08-08T15:00:47.917Z,0.60
2022-08-08T15:03:17.383Z,0.60
2022-08-08T15:05:53.207Z,0.60
2022-08-08T15:08:34.452Z,0.65
2022-08-08T15:11:04.617Z,0.60
2022-08-08T15:13:39.920Z,0.40
2022-08-08T15:16:11.703Z,0.60
2022-08-08T15:18:40.080Z,0.60
2022-08-08T15:21:10.966Z,0.60
2022-08-08T15:23:39.371Z,0.47
2022-08-08T15:26:10.855Z,0.70
2022-08-08T15:28:39.723Z,0.60
2022-08-08T15:31:06.405Z,0.73
2022-08-08T15:33:35.425Z,0.70
2022-08-08T15:36:06.344Z,0.60
2022-08-08T15:38:33.324Z,0.60
2022-08-08T15:41:00.290Z,0.70
2022-08-08T15:43:36.038Z,0.70
2022-08-08T15:46:03.622Z,0.60
2022-08-08T15:48:33.578Z,0.50
2022-08-08T15:51:06.221Z,0.63
2022-08-08T15:53:49.100Z,0.80
2022-08-08T15:56:20.131Z,0.60
2022-08-08T15:58:48.833Z,0.60
2022-08-08T16:01:16.708Z,0.60
2022-08-08T16:03:47.983Z,0.70
2022-08-08T16:06:28.429Z,0.80
2022-08-08T16:13:00.130Z,0.60
2022-08-08T16:13:15.604Z,0.60
2022-08-08T16:14:32.710Z,0.70
2022-08-08T16:17:00.424Z,0.65
2022-08-08T16:19:27.366Z,0.60
2022-08-08T16:21:57.583Z,0.87
2022-08-08T16:24:24.755Z,0.65
2022-08-08T16:26:51.481Z,0.70
2022-08-08T16:29:36.957Z,0.68
2022-08-08T16:32:11.275Z,0.60
2022-08-08T16:34:47.735Z,0.60
2022-08-08T16:37:16.232Z,0.50
2022-08-08T16:40:02.211Z,0.60
2022-08-08T16:42:30.040Z,0.60
2022-08-08T16:44:58.888Z,0.57
2022-08-08T16:47:41.393Z,0.73
2022-08-08T16:50:14.126Z,0.55
2022-08-08T16:55:04.471Z,0.70
2022-08-08T16:55:54.331Z,0.60
2022-08-08T16:58:25.687Z,0.63
2022-08-08T17:00:54.368Z,0.60
2022-08-08T17:03:25.489Z,0.70
2022-08-08T17:06:41.773Z,0.70
2022-08-08T17:08:56.508Z,0.55
2022-08-08T17:11:27.961Z,0.60
2022-08-08T17:14:01.016Z,0.60
2022-08-08T17:16:28.913Z,0.60
2022-08-08T17:18:55.797Z,0.80
2022-08-08T17:21:22.819Z,0.63
2022-08-08T17:23:58.381Z,0.60
2022-08-08T17:26:30.133Z,0.70
2022-08-08T17:28:58.615Z,0.80
2022-08-08T17:31:45.319Z,0.60
2022-08-08T17:34:36.088Z,0.60
2022-08-08T17:37:03.240Z,0.50
2022-08-08T17:40:04.229Z,0.80
2022-08-08T17:42:19.193Z,0.77
2022-08-08T17:44:49.151Z,0.60
2022-08-08T17:47:24.219Z,0.70
2022-08-08T17:50:01.291Z,0.80
2022-08-08T17:52:33.248Z,0.85
2022-08-08T17:55:01.473Z,0.60
2022-08-08T17:57:35.071Z,0.60
2022-08-08T18:00:04.915Z,0.50
2022-08-08T18:02:40.183Z,0.70
2022-08-08T18:05:14.682Z,0.50
2022-08-08T18:08:03.210Z,0.77
2022-08-08T18:10:31.544Z,1.02
2022-08-08T18:12:58.767Z,0.80
2022-08-08T18:15:31.194Z,0.65
2022-08-08T18:18:08.830Z,0.80
2022-08-08T18:20:59.348Z,0.40
2022-08-08T18:23:26.934Z,0.82
2022-08-08T18:25:53.680Z,0.70
2022-08-08T18:28:23.563Z,0.75
2022-08-08T18:30:52.497Z,0.57
2022-08-08T18:33:36.635Z,0.60
2022-08-08T18:36:11.538Z,0.57
2022-08-08T18:38:49.775Z,0.90
2022-08-08T18:41:16.492Z,0.70
2022-08-08T18:43:45.967Z,0.50
2022-08-08T18:46:55.236Z,0.70
2022-08-08T18:48:59.413Z,0.70
2022-08-08T18:51:53.437Z,0.57
2022-08-08T18:54:21.903Z,0.90
2022-08-08T18:56:51.011Z,0.63
2022-08-08T18:59:17.744Z,0.93
2022-08-08T19:02:27.738Z,0.60
2022-08-08T19:04:31.907Z,0.70
2022-08-08T19:07:02.565Z,0.85
2022-08-08T19:09:49.362Z,0.60
2022-08-08T19:12:17.030Z,0.75
2022-08-08T19:14:43.936Z,1.17
2022-08-08T19:17:11.049Z,0.95
2022-08-08T19:19:44.269Z,0.70
2022-08-08T19:22:26.130Z,0.90
2022-08-08T19:25:21.426Z,0.55
2022-08-08T19:27:55.679Z,1.00
2022-08-08T19:30:26.676Z,0.80
2022-08-08T19:33:00.475Z,0.68
2022-08-08T19:35:45.329Z,0.63
2022-08-08T19:38:17.423Z,0.63
2022-08-08T19:40:55.769Z,0.73
2022-08-08T19:43:28.189Z,0.70
2022-08-08T19:45:59.709Z,0.90
2022-08-08T19:48:31.325Z,1.05
2022-08-08T19:51:01.156Z,0.90
2022-08-08T19:53:53.066Z,0.90
2022-08-08T19:56:16.327Z,0.70
2022-08-08T19:58:53.067Z,0.90
2022-08-08T20:01:31.619Z,1.17
2022-08-08T20:04:09.351Z,0.95
2022-08-08T20:06:37.105Z,1.10
2022-08-08T20:09:08.623Z,0.90
2022-08-08T20:11:42.923Z,1.20
2022-08-08T20:14:34.871Z,1.13
2022-08-08T20:16:57.161Z,1.15
2022-08-08T20:19:34.307Z,1.27
2022-08-08T20:22:13.101Z,1.30
2022-08-08T20:24:48.446Z,1.30
2022-08-08T20:27:19.935Z,1.30
2022-08-08T20:30:01.007Z,1.63
2022-08-08T20:32:29.658Z,1.73
2022-08-08T20:35:01.390Z,1.17
2022-08-08T20:37:47.279Z,1.50
2022-08-08T20:40:17.298Z,1.52
2022-08-08T20:42:54.655Z,1.65
2022-08-08T20:45:54.424Z,1.60
2022-08-08T20:48:09.521Z,1.50
2022-08-08T20:50:36.908Z,1.70
2022-08-08T20:53:06.811Z,1.42
2022-08-08T20:55:42.927Z,1.67
2022-08-08T20:58:13.764Z,1.77
2022-08-08T21:00:47.120Z,1.67
2022-08-08T21:03:16.091Z,1.83
2022-08-08T21:05:58.400Z,1.70
2022-08-08T21:08:36.758Z,2.20
2022-08-08T21:11:13.566Z,1.80
2022-08-08T21:13:41.892Z,1.67
2022-08-08T21:16:20.944Z,1.80
2022-08-08T21:18:57.387Z,1.60
2022-08-08T21:21:39.712Z,1.90
2022-08-08T21:24:22.247Z,1.73
2022-08-08T21:26:54.947Z,1.80
2022-08-08T21:29:23.049Z,1.80
2022-08-08T21:32:14.261Z,1.80
2022-08-08T21:34:49.454Z,1.83
2022-08-08T21:37:19.193Z,2.17
2022-08-08T21:39:56.672Z,1.90
2022-08-08T21:42:23.937Z,1.92
2022-08-08T21:44:58.769Z,1.90
2022-08-08T21:48:07.246Z,1.90
2022-08-08T21:50:14.198Z,1.98
2022-08-08T21:54:33.579Z,2.03
2022-08-08T21:56:28.038Z,1.95
2022-08-08T21:58:14.411Z,2.00
2022-08-08T22:00:41.239Z,1.83
2022-08-08T22:03:11.009Z,1.60
2022-08-08T22:05:42.294Z,1.92
2022-08-08T22:08:09.009Z,2.20
2022-08-08T22:10:36.525Z,2.00
2022-08-08T22:13:17.925Z,2.33
2022-08-08T22:15:59.213Z,1.95
2022-08-08T22:18:29.697Z,2.03
2022-08-08T22:20:59.422Z,2.20
2022-08-08T22:23:32.559Z,1.92
2022-08-08T22:26:27.531Z,1.98
2022-08-08T22:29:14.204Z,1.98
2022-08-08T22:31:35.126Z,1.90
2022-08-08T22:34:12.987Z,1.83
2022-08-08T22:36:42.759Z,1.75
2022-08-08T22:39:11.826Z,1.88
2022-08-08T22:41:45.992Z,1.80
2022-08-08T22:44:13.066Z,1.83
2022-08-08T22:46:40.017Z,2.00
2022-08-08T22:49:09.179Z,1.70
2022-08-08T22:51:46.031Z,2.10
2022-08-08T22:54:32.496Z,1.98
2022-08-08T22:57:01.181Z,1.73
2022-08-08T22:59:36.168Z,1.70
2022-08-08T23:02:14.518Z,1.77
2022-08-08T23:05:02.250Z,1.73
2022-08-08T23:07:51.293Z,1.92
2022-08-08T23:10:21.464Z,2.05
2022-08-08T23:12:51.563Z,1.90
2022-08-08T23:16:41.401Z,1.90
2022-08-08T23:18:12.003Z,2.08
2022-08-08T23:20:41.095Z,1.90
2022-08-08T23:23:10.223Z,2.08
2022-08-08T23:25:37.413Z,1.98
2022-08-08T23:28:15.382Z,1.70
2022-08-08T23:30:46.841Z,1.67
2022-08-08T23:33:21.242Z,1.90
2022-08-08T23:36:08.200Z,2.00
2022-08-08T23:38:36.895Z,1.95
2022-08-08T23:41:24.709Z,1.90
2022-08-08T23:43:56.809Z,1.73
2022-08-08T23:49:02.870Z,1.83
2022-08-08T23:49:18.381Z,2.25
2022-08-08T23:52:06.925Z,1.70
2022-08-08T23:54:43.555Z,1.80
2022-08-08T23:57:26.930Z,1.92
